Terminal Aerodrome Forecast
Issued by NWS

Home | Current Version | Previous Version | Text Only | Print | Product List | Glossary On
Versions: 1 2 3 4 5 6 7 8 9 10 11 12 13 14 15
000
FTUS43 KDLH 131700
TAFHIB
TAF
KHIB 131739Z 1318/1418 33018G22KT P6SM OVC013
     FM131900 33016G23KT P6SM OVC023
     FM132300 33016G24KT P6SM BKN050
     FM140600 34016G26KT P6SM SCT025 BKN100=

USA.gov is the U.S. government's official web portal to all federal, state and local government web resources and services.